Terminal Aerodrome Forecast
Issued by NWS

Home | Current Version | Previous Version | Text Only | Print | Product List | Glossary On
Versions: 1 2 3 4 5 6 7 8 9 10 11 12 13 14 15 16 17 18 19 20 21 22 23 24 25
000
FTUS46 KSGX 211700
TAFSAN
TAF
KSAN 211721Z 2118/2224 VRB06KT P6SM FEW035 SCT045
     FM211900 30010KT P6SM FEW045 SCT250
     FM220200 VRB04KT P6SM FEW030 SCT250
     FM222000 27008KT P6SM FEW250=

USA.gov is the U.S. government's official web portal to all federal, state and local government web resources and services.